sensor_id;sensor_type;location;lat;lon;timestamp;P1;durP1;ratioP1;P2;durP2;ratioP2
56122;SDS011;42426;46.104;19.656;2022-07-06T00:01:39;6.75;;;6.15;;
56122;SDS011;42426;46.104;19.656;2022-07-06T00:04:05;6.68;;;6.10;;
56122;SDS011;42426;46.104;19.656;2022-07-06T00:06:31;9.13;;;6.40;;
56122;SDS011;42426;46.104;19.656;2022-07-06T00:08:57;7.20;;;6.50;;
56122;SDS011;42426;46.104;19.656;2022-07-06T00:11:23;8.25;;;6.65;;
56122;SDS011;42426;46.104;19.656;2022-07-06T00:13:49;7.75;;;6.95;;
56122;SDS011;42426;46.104;19.656;2022-07-06T00:16:17;7.45;;;6.70;;
56122;SDS011;42426;46.104;19.656;2022-07-06T00:18:43;6.70;;;5.97;;
56122;SDS011;42426;46.104;19.656;2022-07-06T00:21:09;7.82;;;7.03;;
56122;SDS011;42426;46.104;19.656;2022-07-06T00:23:34;6.32;;;5.72;;
56122;SDS011;42426;46.104;19.656;2022-07-06T00:26:00;7.43;;;6.75;;
56122;SDS011;42426;46.104;19.656;2022-07-06T00:28:26;7.13;;;6.43;;
56122;SDS011;42426;46.104;19.656;2022-07-06T00:30:52;8.40;;;7.13;;
56122;SDS011;42426;46.104;19.656;2022-07-06T00:33:19;7.65;;;6.85;;
56122;SDS011;42426;46.104;19.656;2022-07-06T00:35:45;7.55;;;6.65;;
56122;SDS011;42426;46.104;19.656;2022-07-06T00:38:11;8.32;;;6.88;;
56122;SDS011;42426;46.104;19.656;2022-07-06T00:40:37;7.85;;;7.05;;
56122;SDS011;42426;46.104;19.656;2022-07-06T00:43:03;6.55;;;5.85;;
56122;SDS011;42426;46.104;19.656;2022-07-06T00:45:29;6.43;;;5.93;;
56122;SDS011;42426;46.104;19.656;2022-07-06T00:47:55;8.32;;;7.63;;
56122;SDS011;42426;46.104;19.656;2022-07-06T00:50:20;5.50;;;5.00;;
56122;SDS011;42426;46.104;19.656;2022-07-06T00:52:48;13.85;;;6.88;;
56122;SDS011;42426;46.104;19.656;2022-07-06T00:55:16;7.53;;;6.40;;
56122;SDS011;42426;46.104;19.656;2022-07-06T00:57:43;7.30;;;6.70;;
56122;SDS011;42426;46.104;19.656;2022-07-06T01:00:10;6.50;;;5.20;;
56122;SDS011;42426;46.104;19.656;2022-07-06T01:02:38;7.05;;;6.35;;
56122;SDS011;42426;46.104;19.656;2022-07-06T01:05:05;6.25;;;5.70;;
56122;SDS011;42426;46.104;19.656;2022-07-06T01:07:32;5.93;;;5.43;;
56122;SDS011;42426;46.104;19.656;2022-07-06T01:09:58;5.57;;;5.07;;
56122;SDS011;42426;46.104;19.656;2022-07-06T01:12:24;6.80;;;6.22;;
56122;SDS011;42426;46.104;19.656;2022-07-06T01:14:50;5.72;;;5.22;;
56122;SDS011;42426;46.104;19.656;2022-07-06T01:17:19;7.03;;;6.43;;
56122;SDS011;42426;46.104;19.656;2022-07-06T01:19:46;7.35;;;6.05;;
56122;SDS011;42426;46.104;19.656;2022-07-06T01:22:13;8.20;;;6.97;;
56122;SDS011;42426;46.104;19.656;2022-07-06T01:24:39;6.82;;;6.22;;
56122;SDS011;42426;46.104;19.656;2022-07-06T01:27:05;6.80;;;6.15;;
56122;SDS011;42426;46.104;19.656;2022-07-06T01:29:31;7.55;;;6.88;;
56122;SDS011;42426;46.104;19.656;2022-07-06T01:31:57;7.75;;;7.03;;
56122;SDS011;42426;46.104;19.656;2022-07-06T01:34:23;6.03;;;5.25;;
56122;SDS011;42426;46.104;19.656;2022-07-06T01:36:49;7.10;;;6.50;;
56122;SDS011;42426;46.104;19.656;2022-07-06T01:39:15;8.40;;;7.60;;
56122;SDS011;42426;46.104;19.656;2022-07-06T01:41:41;7.95;;;7.18;;
56122;SDS011;42426;46.104;19.656;2022-07-06T01:44:07;8.98;;;7.32;;
56122;SDS011;42426;46.104;19.656;2022-07-06T01:46:33;7.22;;;6.53;;
56122;SDS011;42426;46.104;19.656;2022-07-06T01:48:59;7.32;;;6.63;;
56122;SDS011;42426;46.104;19.656;2022-07-06T01:51:25;8.70;;;7.45;;
56122;SDS011;42426;46.104;19.656;2022-07-06T01:53:52;9.52;;;7.85;;
56122;SDS011;42426;46.104;19.656;2022-07-06T01:56:18;7.50;;;6.90;;
56122;SDS011;42426;46.104;19.656;2022-07-06T01:58:45;7.80;;;7.10;;
56122;SDS011;42426;46.104;19.656;2022-07-06T02:01:13;10.00;;;8.55;;
56122;SDS011;42426;46.104;19.656;2022-07-06T02:03:41;9.90;;;8.88;;
56122;SDS011;42426;46.104;19.656;2022-07-06T02:06:07;8.00;;;7.20;;
56122;SDS011;42426;46.104;19.656;2022-07-06T02:08:33;8.75;;;7.88;;
56122;SDS011;42426;46.104;19.656;2022-07-06T02:11:00;9.55;;;8.70;;
56122;SDS011;42426;46.104;19.656;2022-07-06T02:13:30;6.40;;;5.75;;
56122;SDS011;42426;46.104;19.656;2022-07-06T02:15:56;8.07;;;7.28;;
56122;SDS011;42426;46.104;19.656;2022-07-06T02:18:22;9.10;;;8.23;;
56122;SDS011;42426;46.104;19.656;2022-07-06T02:20:48;7.90;;;7.20;;
56122;SDS011;42426;46.104;19.656;2022-07-06T02:23:14;6.38;;;5.78;;
56122;SDS011;42426;46.104;19.656;2022-07-06T02:25:41;6.85;;;6.25;;
56122;SDS011;42426;46.104;19.656;2022-07-06T02:28:07;8.25;;;7.47;;
56122;SDS011;42426;46.104;19.656;2022-07-06T02:30:32;6.95;;;6.35;;
56122;SDS011;42426;46.104;19.656;2022-07-06T02:32:58;7.22;;;6.60;;
56122;SDS011;42426;46.104;19.656;2022-07-06T02:35:25;7.70;;;7.00;;
56122;SDS011;42426;46.104;19.656;2022-07-06T02:37:51;9.32;;;8.43;;
56122;SDS011;42426;46.104;19.656;2022-07-06T02:40:17;9.52;;;8.40;;
56122;SDS011;42426;46.104;19.656;2022-07-06T02:42:43;6.63;;;5.95;;
56122;SDS011;42426;46.104;19.656;2022-07-06T02:45:09;8.73;;;7.93;;
56122;SDS011;42426;46.104;19.656;2022-07-06T02:47:35;9.18;;;8.02;;
56122;SDS011;42426;46.104;19.656;2022-07-06T02:50:02;7.60;;;6.97;;
56122;SDS011;42426;46.104;19.656;2022-07-06T02:52:28;9.15;;;8.25;;
56122;SDS011;42426;46.104;19.656;2022-07-06T02:54:56;8.60;;;7.80;;
56122;SDS011;42426;46.104;19.656;2022-07-06T02:57:22;7.57;;;6.90;;
56122;SDS011;42426;46.104;19.656;2022-07-06T02:59:47;8.43;;;6.88;;
56122;SDS011;42426;46.104;19.656;2022-07-06T03:02:15;9.52;;;8.63;;
56122;SDS011;42426;46.104;19.656;2022-07-06T03:04:41;7.40;;;6.72;;
56122;SDS011;42426;46.104;19.656;2022-07-06T03:07:07;8.38;;;7.35;;
56122;SDS011;42426;46.104;19.656;2022-07-06T03:12:24;8.85;;;8.05;;
56122;SDS011;42426;46.104;19.656;2022-07-06T03:14:50;7.30;;;6.68;;
56122;SDS011;42426;46.104;19.656;2022-07-06T03:17:15;8.80;;;7.80;;
56122;SDS011;42426;46.104;19.656;2022-07-06T03:19:41;8.95;;;8.05;;
56122;SDS011;42426;46.104;19.656;2022-07-06T03:22:07;8.48;;;7.65;;
56122;SDS011;42426;46.104;19.656;2022-07-06T03:24:33;8.90;;;8.02;;
56122;SDS011;42426;46.104;19.656;2022-07-06T03:26:59;8.82;;;8.02;;
56122;SDS011;42426;46.104;19.656;2022-07-06T03:29:25;7.90;;;7.07;;
56122;SDS011;42426;46.104;19.656;2022-07-06T03:31:50;8.32;;;7.55;;
56122;SDS011;42426;46.104;19.656;2022-07-06T03:34:16;7.85;;;7.18;;
56122;SDS011;42426;46.104;19.656;2022-07-06T03:36:42;7.90;;;7.20;;
56122;SDS011;42426;46.104;19.656;2022-07-06T03:39:08;8.32;;;7.53;;
56122;SDS011;42426;46.104;19.656;2022-07-06T03:41:33;9.02;;;8.13;;
56122;SDS011;42426;46.104;19.656;2022-07-06T03:44:00;9.98;;;9.07;;
56122;SDS011;42426;46.104;19.656;2022-07-06T03:46:27;7.95;;;7.15;;
56122;SDS011;42426;46.104;19.656;2022-07-06T03:48:54;7.32;;;6.38;;
56122;SDS011;42426;46.104;19.656;2022-07-06T03:51:20;9.98;;;9.00;;
56122;SDS011;42426;46.104;19.656;2022-07-06T03:53:45;7.00;;;6.30;;
56122;SDS011;42426;46.104;19.656;2022-07-06T03:56:11;10.52;;;8.23;;
56122;SDS011;42426;46.104;19.656;2022-07-06T04:01:21;10.32;;;9.23;;
56122;SDS011;42426;46.104;19.656;2022-07-06T04:03:47;9.90;;;8.88;;
56122;SDS011;42426;46.104;19.656;2022-07-06T04:06:13;9.48;;;8.48;;
56122;SDS011;42426;46.104;19.656;2022-07-06T04:08:39;6.55;;;5.88;;
56122;SDS011;42426;46.104;19.656;2022-07-06T04:11:05;10.00;;;8.38;;
56122;SDS011;42426;46.104;19.656;2022-07-06T04:13:31;7.32;;;6.63;;
56122;SDS011;42426;46.104;19.656;2022-07-06T04:15:57;7.63;;;6.93;;
56122;SDS011;42426;46.104;19.656;2022-07-06T04:18:22;9.00;;;7.72;;
56122;SDS011;42426;46.104;19.656;2022-07-06T04:20:48;7.05;;;6.35;;
56122;SDS011;42426;46.104;19.656;2022-07-06T04:23:14;8.10;;;7.40;;
56122;SDS011;42426;46.104;19.656;2022-07-06T04:25:40;7.18;;;6.47;;
56122;SDS011;42426;46.104;19.656;2022-07-06T04:28:06;8.18;;;7.47;;
56122;SDS011;42426;46.104;19.656;2022-07-06T04:30:33;8.00;;;7.28;;
56122;SDS011;42426;46.104;19.656;2022-07-06T04:32:58;9.10;;;6.55;;
56122;SDS011;42426;46.104;19.656;2022-07-06T04:35:24;7.82;;;7.03;;
56122;SDS011;42426;46.104;19.656;2022-07-06T04:37:50;9.07;;;8.13;;
56122;SDS011;42426;46.104;19.656;2022-07-06T04:40:16;6.55;;;5.90;;
56122;SDS011;42426;46.104;19.656;2022-07-06T04:42:41;16.17;;;6.00;;
56122;SDS011;42426;46.104;19.656;2022-07-06T04:45:08;6.68;;;6.00;;
56122;SDS011;42426;46.104;19.656;2022-07-06T04:47:34;8.43;;;6.18;;
56122;SDS011;42426;46.104;19.656;2022-07-06T04:50:00;13.02;;;6.68;;
56122;SDS011;42426;46.104;19.656;2022-07-06T04:52:27;5.95;;;5.43;;
56122;SDS011;42426;46.104;19.656;2022-07-06T04:54:55;7.65;;;6.95;;
56122;SDS011;42426;46.104;19.656;2022-07-06T04:57:21;6.80;;;5.72;;
56122;SDS011;42426;46.104;19.656;2022-07-06T04:59:47;7.05;;;6.30;;
56122;SDS011;42426;46.104;19.656;2022-07-06T05:02:13;7.43;;;6.05;;
56122;SDS011;42426;46.104;19.656;2022-07-06T05:04:41;6.22;;;5.20;;
56122;SDS011;42426;46.104;19.656;2022-07-06T05:07:07;8.30;;;6.20;;
56122;SDS011;42426;46.104;19.656;2022-07-06T05:09:33;10.10;;;6.40;;
56122;SDS011;42426;46.104;19.656;2022-07-06T05:11:59;6.43;;;5.85;;
56122;SDS011;42426;46.104;19.656;2022-07-06T05:14:24;6.75;;;5.60;;
56122;SDS011;42426;46.104;19.656;2022-07-06T05:16:50;6.75;;;5.55;;
56122;SDS011;42426;46.104;19.656;2022-07-06T05:19:16;7.60;;;5.53;;
56122;SDS011;42426;46.104;19.656;2022-07-06T05:21:42;5.82;;;5.22;;
56122;SDS011;42426;46.104;19.656;2022-07-06T05:24:07;5.30;;;4.75;;
56122;SDS011;42426;46.104;19.656;2022-07-06T05:26:33;6.22;;;5.13;;
56122;SDS011;42426;46.104;19.656;2022-07-06T05:28:59;5.28;;;4.80;;
56122;SDS011;42426;46.104;19.656;2022-07-06T05:31:25;6.97;;;4.80;;
56122;SDS011;42426;46.104;19.656;2022-07-06T05:33:51;5.82;;;5.30;;
56122;SDS011;42426;46.104;19.656;2022-07-06T05:36:16;9.23;;;5.75;;
56122;SDS011;42426;46.104;19.656;2022-07-06T05:38:43;5.03;;;4.53;;
56122;SDS011;42426;46.104;19.656;2022-07-06T05:41:10;6.07;;;5.57;;
56122;SDS011;42426;46.104;19.656;2022-07-06T05:43:36;5.55;;;5.00;;
56122;SDS011;42426;46.104;19.656;2022-07-06T05:46:02;5.60;;;5.07;;
56122;SDS011;42426;46.104;19.656;2022-07-06T05:48:29;7.05;;;5.20;;
56122;SDS011;42426;46.104;19.656;2022-07-06T05:51:15;6.03;;;5.43;;
56122;SDS011;42426;46.104;19.656;2022-07-06T05:53:41;5.60;;;5.05;;
56122;SDS011;42426;46.104;19.656;2022-07-06T05:56:14;5.55;;;4.70;;
56122;SDS011;42426;46.104;19.656;2022-07-06T05:58:40;5.25;;;4.80;;
56122;SDS011;42426;46.104;19.656;2022-07-06T06:01:05;7.38;;;6.20;;
56122;SDS011;42426;46.104;19.656;2022-07-06T06:03:34;8.02;;;5.53;;
56122;SDS011;42426;46.104;19.656;2022-07-06T06:06:00;7.55;;;4.88;;
56122;SDS011;42426;46.104;19.656;2022-07-06T06:08:26;6.47;;;5.07;;
56122;SDS011;42426;46.104;19.656;2022-07-06T06:10:52;8.63;;;5.63;;
56122;SDS011;42426;46.104;19.656;2022-07-06T06:13:18;9.18;;;5.50;;
56122;SDS011;42426;46.104;19.656;2022-07-06T06:15:44;4.93;;;4.53;;
56122;SDS011;42426;46.104;19.656;2022-07-06T06:18:10;6.10;;;5.00;;
56122;SDS011;42426;46.104;19.656;2022-07-06T06:20:35;7.63;;;4.75;;
56122;SDS011;42426;46.104;19.656;2022-07-06T06:23:01;6.35;;;5.03;;
56122;SDS011;42426;46.104;19.656;2022-07-06T06:25:33;4.80;;;4.30;;
56122;SDS011;42426;46.104;19.656;2022-07-06T06:28:01;8.45;;;5.50;;
56122;SDS011;42426;46.104;19.656;2022-07-06T06:30:28;5.40;;;4.90;;
56122;SDS011;42426;46.104;19.656;2022-07-06T06:33:13;5.30;;;4.80;;
56122;SDS011;42426;46.104;19.656;2022-07-06T06:35:42;5.50;;;4.93;;
56122;SDS011;42426;46.104;19.656;2022-07-06T06:38:12;5.05;;;4.55;;
56122;SDS011;42426;46.104;19.656;2022-07-06T06:40:39;5.68;;;5.15;;
56122;SDS011;42426;46.104;19.656;2022-07-06T06:43:06;5.20;;;4.75;;
56122;SDS011;42426;46.104;19.656;2022-07-06T06:45:31;6.03;;;5.30;;
56122;SDS011;42426;46.104;19.656;2022-07-06T06:47:57;9.07;;;5.25;;
56122;SDS011;42426;46.104;19.656;2022-07-06T06:50:23;6.10;;;4.50;;
56122;SDS011;42426;46.104;19.656;2022-07-06T06:52:54;6.00;;;5.15;;
56122;SDS011;42426;46.104;19.656;2022-07-06T06:55:20;8.63;;;5.07;;
56122;SDS011;42426;46.104;19.656;2022-07-06T06:57:46;5.25;;;4.68;;
56122;SDS011;42426;46.104;19.656;2022-07-06T07:00:12;7.75;;;5.20;;
56122;SDS011;42426;46.104;19.656;2022-07-06T07:02:39;7.25;;;5.10;;
56122;SDS011;42426;46.104;19.656;2022-07-06T07:05:05;6.30;;;4.80;;
56122;SDS011;42426;46.104;19.656;2022-07-06T07:07:33;5.75;;;4.80;;
56122;SDS011;42426;46.104;19.656;2022-07-06T07:10:00;4.72;;;4.32;;
56122;SDS011;42426;46.104;19.656;2022-07-06T07:12:25;5.00;;;4.50;;
56122;SDS011;42426;46.104;19.656;2022-07-06T07:14:51;6.03;;;4.68;;
56122;SDS011;42426;46.104;19.656;2022-07-06T07:17:17;10.15;;;4.97;;
56122;SDS011;42426;46.104;19.656;2022-07-06T07:19:43;9.30;;;4.45;;
56122;SDS011;42426;46.104;19.656;2022-07-06T07:22:09;10.15;;;4.80;;
56122;SDS011;42426;46.104;19.656;2022-07-06T07:24:34;9.20;;;5.10;;
56122;SDS011;42426;46.104;19.656;2022-07-06T07:27:00;7.90;;;4.60;;
56122;SDS011;42426;46.104;19.656;2022-07-06T07:29:26;7.55;;;5.43;;
56122;SDS011;42426;46.104;19.656;2022-07-06T07:31:52;4.85;;;4.43;;
56122;SDS011;42426;46.104;19.656;2022-07-06T07:34:18;6.57;;;4.75;;
56122;SDS011;42426;46.104;19.656;2022-07-06T07:36:43;5.60;;;5.10;;
56122;SDS011;42426;46.104;19.656;2022-07-06T07:39:09;5.15;;;4.65;;
56122;SDS011;42426;46.104;19.656;2022-07-06T07:41:36;5.90;;;4.95;;
56122;SDS011;42426;46.104;19.656;2022-07-06T07:44:02;5.00;;;4.50;;
56122;SDS011;42426;46.104;19.656;2022-07-06T07:46:29;5.55;;;4.97;;
56122;SDS011;42426;46.104;19.656;2022-07-06T07:48:55;7.18;;;4.93;;
56122;SDS011;42426;46.104;19.656;2022-07-06T07:51:20;5.53;;;4.57;;
56122;SDS011;42426;46.104;19.656;2022-07-06T07:53:46;6.53;;;5.28;;
56122;SDS011;42426;46.104;19.656;2022-07-06T07:56:13;6.97;;;5.55;;
56122;SDS011;42426;46.104;19.656;2022-07-06T07:58:39;5.70;;;5.10;;
56122;SDS011;42426;46.104;19.656;2022-07-06T08:01:05;5.30;;;4.80;;
56122;SDS011;42426;46.104;19.656;2022-07-06T08:03:31;6.68;;;5.32;;
56122;SDS011;42426;46.104;19.656;2022-07-06T08:05:57;6.30;;;5.05;;
56122;SDS011;42426;46.104;19.656;2022-07-06T08:08:23;8.70;;;5.38;;
56122;SDS011;42426;46.104;19.656;2022-07-06T08:10:49;5.30;;;4.80;;
56122;SDS011;42426;46.104;19.656;2022-07-06T08:13:15;5.93;;;5.15;;
56122;SDS011;42426;46.104;19.656;2022-07-06T08:15:41;10.13;;;5.38;;
56122;SDS011;42426;46.104;19.656;2022-07-06T08:18:07;8.02;;;5.47;;
56122;SDS011;42426;46.104;19.656;2022-07-06T08:20:34;6.18;;;5.40;;
56122;SDS011;42426;46.104;19.656;2022-07-06T08:23:00;5.45;;;4.80;;
56122;SDS011;42426;46.104;19.656;2022-07-06T08:25:26;5.72;;;4.85;;
56122;SDS011;42426;46.104;19.656;2022-07-06T08:27:52;4.80;;;4.40;;
56122;SDS011;42426;46.104;19.656;2022-07-06T08:30:18;5.82;;;4.93;;
56122;SDS011;42426;46.104;19.656;2022-07-06T08:32:44;8.55;;;5.25;;
56122;SDS011;42426;46.104;19.656;2022-07-06T08:35:10;5.28;;;4.43;;
56122;SDS011;42426;46.104;19.656;2022-07-06T08:40:58;6.13;;;5.03;;
56122;SDS011;42426;46.104;19.656;2022-07-06T08:46:46;7.80;;;5.25;;
56122;SDS011;42426;46.104;19.656;2022-07-06T08:49:17;7.38;;;5.00;;
56122;SDS011;42426;46.104;19.656;2022-07-06T08:51:43;5.68;;;5.13;;
56122;SDS011;42426;46.104;19.656;2022-07-06T08:54:10;6.75;;;5.95;;
56122;SDS011;42426;46.104;19.656;2022-07-06T08:56:36;6.50;;;4.40;;
56122;SDS011;42426;46.104;19.656;2022-07-06T08:59:04;7.90;;;4.88;;
56122;SDS011;42426;46.104;19.656;2022-07-06T09:01:33;8.60;;;4.68;;
56122;SDS011;42426;46.104;19.656;2022-07-06T09:04:05;6.15;;;4.75;;
56122;SDS011;42426;46.104;19.656;2022-07-06T09:06:32;5.93;;;4.95;;
56122;SDS011;42426;46.104;19.656;2022-07-06T09:08:59;4.88;;;4.38;;
56122;SDS011;42426;46.104;19.656;2022-07-06T09:11:30;8.68;;;5.32;;
56122;SDS011;42426;46.104;19.656;2022-07-06T09:13:56;7.15;;;5.55;;
56122;SDS011;42426;46.104;19.656;2022-07-06T09:16:26;5.22;;;4.72;;
56122;SDS011;42426;46.104;19.656;2022-07-06T09:18:53;9.68;;;5.10;;
56122;SDS011;42426;46.104;19.656;2022-07-06T09:21:22;12.50;;;5.60;;
56122;SDS011;42426;46.104;19.656;2022-07-06T09:23:57;10.35;;;5.63;;
56122;SDS011;42426;46.104;19.656;2022-07-06T09:26:24;6.07;;;5.50;;
56122;SDS011;42426;46.104;19.656;2022-07-06T09:28:51;7.35;;;5.93;;
56122;SDS011;42426;46.104;19.656;2022-07-06T09:31:19;12.30;;;5.82;;
56122;SDS011;42426;46.104;19.656;2022-07-06T09:33:55;6.88;;;6.03;;
56122;SDS011;42426;46.104;19.656;2022-07-06T09:36:37;10.27;;;6.53;;
56122;SDS011;42426;46.104;19.656;2022-07-06T09:41:54;8.30;;;6.80;;
56122;SDS011;42426;46.104;19.656;2022-07-06T09:44:25;6.57;;;5.97;;
56122;SDS011;42426;46.104;19.656;2022-07-06T09:50:15;8.98;;;7.13;;
56122;SDS011;42426;46.104;19.656;2022-07-06T09:56:04;6.60;;;5.85;;
56122;SDS011;42426;46.104;19.656;2022-07-06T10:01:52;6.18;;;5.57;;
56122;SDS011;42426;46.104;19.656;2022-07-06T10:07:44;7.43;;;4.63;;
56122;SDS011;42426;46.104;19.656;2022-07-06T10:17:21;4.90;;;4.47;;
56122;SDS011;42426;46.104;19.656;2022-07-06T10:23:10;9.63;;;4.10;;
56122;SDS011;42426;46.104;19.656;2022-07-06T10:28:39;7.07;;;3.40;;
56122;SDS011;42426;46.104;19.656;2022-07-06T10:34:10;4.25;;;3.65;;
56122;SDS011;42426;46.104;19.656;2022-07-06T10:36:39;3.10;;;2.75;;
56122;SDS011;42426;46.104;19.656;2022-07-06T10:39:05;3.80;;;2.90;;
56122;SDS011;42426;46.104;19.656;2022-07-06T10:41:50;4.13;;;2.40;;
56122;SDS011;42426;46.104;19.656;2022-07-06T10:44:16;2.70;;;2.50;;
56122;SDS011;42426;46.104;19.656;2022-07-06T10:46:50;6.53;;;3.10;;
56122;SDS011;42426;46.104;19.656;2022-07-06T10:49:24;2.78;;;2.33;;
56122;SDS011;42426;46.104;19.656;2022-07-06T10:51:50;4.18;;;2.40;;
56122;SDS011;42426;46.104;19.656;2022-07-06T10:54:17;2.65;;;2.42;;
56122;SDS011;42426;46.104;19.656;2022-07-06T10:56:47;3.90;;;3.10;;
56122;SDS011;42426;46.104;19.656;2022-07-06T10:59:19;2.88;;;2.67;;
56122;SDS011;42426;46.104;19.656;2022-07-06T11:05:11;6.78;;;2.60;;
56122;SDS011;42426;46.104;19.656;2022-07-06T11:11:40;2.95;;;2.75;;
56122;SDS011;42426;46.104;19.656;2022-07-06T11:17:36;2.38;;;2.17;;
56122;SDS011;42426;46.104;19.656;2022-07-06T11:20:08;3.45;;;2.10;;
56122;SDS011;42426;46.104;19.656;2022-07-06T11:22:38;2.97;;;2.00;;
56122;SDS011;42426;46.104;19.656;2022-07-06T11:25:05;3.40;;;2.00;;
56122;SDS011;42426;46.104;19.656;2022-07-06T11:27:31;3.13;;;2.42;;
56122;SDS011;42426;46.104;19.656;2022-07-06T11:29:59;4.32;;;2.25;;
56122;SDS011;42426;46.104;19.656;2022-07-06T11:32:26;3.83;;;2.28;;
56122;SDS011;42426;46.104;19.656;2022-07-06T11:34:52;2.65;;;2.40;;
56122;SDS011;42426;46.104;19.656;2022-07-06T11:37:18;5.85;;;2.20;;
56122;SDS011;42426;46.104;19.656;2022-07-06T11:39:46;3.65;;;2.63;;
56122;SDS011;42426;46.104;19.656;2022-07-06T11:42:13;3.95;;;2.35;;
56122;SDS011;42426;46.104;19.656;2022-07-06T11:44:42;3.13;;;2.08;;
56122;SDS011;42426;46.104;19.656;2022-07-06T11:47:09;2.00;;;1.90;;
56122;SDS011;42426;46.104;19.656;2022-07-06T11:49:36;2.70;;;1.83;;
56122;SDS011;42426;46.104;19.656;2022-07-06T11:52:07;5.15;;;2.40;;
56122;SDS011;42426;46.104;19.656;2022-07-06T11:54:37;3.38;;;2.45;;
56122;SDS011;42426;46.104;19.656;2022-07-06T11:57:03;2.53;;;2.33;;
56122;SDS011;42426;46.104;19.656;2022-07-06T12:03:00;4.32;;;3.30;;
56122;SDS011;42426;46.104;19.656;2022-07-06T12:08:50;5.13;;;3.20;;
56122;SDS011;42426;46.104;19.656;2022-07-06T12:14:44;3.97;;;2.70;;
56122;SDS011;42426;46.104;19.656;2022-07-06T12:24:33;7.32;;;3.17;;
56122;SDS011;42426;46.104;19.656;2022-07-06T12:30:21;2.65;;;2.45;;
56122;SDS011;42426;46.104;19.656;2022-07-06T12:36:18;3.92;;;2.80;;
56122;SDS011;42426;46.104;19.656;2022-07-06T12:52:52;1.92;;;1.83;;
56122;SDS011;42426;46.104;19.656;2022-07-06T12:58:53;3.60;;;2.03;;
56122;SDS011;42426;46.104;19.656;2022-07-06T13:01:22;3.50;;;2.43;;
56122;SDS011;42426;46.104;19.656;2022-07-06T13:03:51;3.40;;;2.67;;
56122;SDS011;42426;46.104;19.656;2022-07-06T13:09:14;3.42;;;2.40;;
56122;SDS011;42426;46.104;19.656;2022-07-06T13:11:41;2.60;;;2.28;;
56122;SDS011;42426;46.104;19.656;2022-07-06T13:14:07;5.22;;;2.67;;
56122;SDS011;42426;46.104;19.656;2022-07-06T13:16:36;4.53;;;2.58;;
56122;SDS011;42426;46.104;19.656;2022-07-06T13:19:01;2.97;;;2.78;;
56122;SDS011;42426;46.104;19.656;2022-07-06T13:21:28;3.67;;;2.40;;
56122;SDS011;42426;46.104;19.656;2022-07-06T13:23:53;2.75;;;2.47;;
56122;SDS011;42426;46.104;19.656;2022-07-06T13:26:19;4.85;;;2.25;;
56122;SDS011;42426;46.104;19.656;2022-07-06T13:28:45;3.85;;;2.40;;
56122;SDS011;42426;46.104;19.656;2022-07-06T13:31:11;5.95;;;2.60;;
56122;SDS011;42426;46.104;19.656;2022-07-06T13:33:37;4.22;;;2.67;;
56122;SDS011;42426;46.104;19.656;2022-07-06T13:36:03;3.95;;;2.78;;
56122;SDS011;42426;46.104;19.656;2022-07-06T13:38:29;3.47;;;2.60;;
56122;SDS011;42426;46.104;19.656;2022-07-06T13:40:54;3.20;;;2.95;;
56122;SDS011;42426;46.104;19.656;2022-07-06T13:43:20;4.80;;;2.42;;
56122;SDS011;42426;46.104;19.656;2022-07-06T13:45:46;2.67;;;2.40;;
56122;SDS011;42426;46.104;19.656;2022-07-06T13:48:13;4.85;;;2.50;;
56122;SDS011;42426;46.104;19.656;2022-07-06T13:50:39;4.38;;;2.55;;
56122;SDS011;42426;46.104;19.656;2022-07-06T13:53:05;4.28;;;2.70;;
56122;SDS011;42426;46.104;19.656;2022-07-06T13:55:32;3.78;;;2.92;;
56122;SDS011;42426;46.104;19.656;2022-07-06T13:57:58;5.35;;;3.00;;
56122;SDS011;42426;46.104;19.656;2022-07-06T14:00:24;3.15;;;2.92;;
56122;SDS011;42426;46.104;19.656;2022-07-06T14:02:50;11.10;;;3.65;;
56122;SDS011;42426;46.104;19.656;2022-07-06T14:05:16;4.72;;;3.10;;
56122;SDS011;42426;46.104;19.656;2022-07-06T14:07:42;3.78;;;3.45;;
56122;SDS011;42426;46.104;19.656;2022-07-06T14:10:07;3.97;;;3.53;;
56122;SDS011;42426;46.104;19.656;2022-07-06T14:12:33;3.50;;;3.20;;
56122;SDS011;42426;46.104;19.656;2022-07-06T14:15:00;3.53;;;3.22;;
56122;SDS011;42426;46.104;19.656;2022-07-06T14:17:28;3.63;;;3.30;;
56122;SDS011;42426;46.104;19.656;2022-07-06T14:19:54;3.58;;;3.28;;
56122;SDS011;42426;46.104;19.656;2022-07-06T14:22:20;8.40;;;4.57;;
56122;SDS011;42426;46.104;19.656;2022-07-06T14:24:46;5.05;;;4.47;;
56122;SDS011;42426;46.104;19.656;2022-07-06T14:27:12;3.75;;;3.45;;
56122;SDS011;42426;46.104;19.656;2022-07-06T14:29:38;6.43;;;3.53;;
56122;SDS011;42426;46.104;19.656;2022-07-06T14:32:04;6.13;;;5.07;;
56122;SDS011;42426;46.104;19.656;2022-07-06T14:34:29;4.53;;;4.03;;
56122;SDS011;42426;46.104;19.656;2022-07-06T14:36:55;4.60;;;3.58;;
56122;SDS011;42426;46.104;19.656;2022-07-06T14:39:21;7.90;;;4.90;;
56122;SDS011;42426;46.104;19.656;2022-07-06T14:41:47;5.32;;;4.05;;
56122;SDS011;42426;46.104;19.656;2022-07-06T14:44:12;5.25;;;3.88;;
56122;SDS011;42426;46.104;19.656;2022-07-06T14:46:39;6.30;;;4.20;;
56122;SDS011;42426;46.104;19.656;2022-07-06T14:49:05;5.95;;;4.93;;
56122;SDS011;42426;46.104;19.656;2022-07-06T14:51:31;6.47;;;4.00;;
56122;SDS011;42426;46.104;19.656;2022-07-06T14:53:56;4.95;;;4.45;;
56122;SDS011;42426;46.104;19.656;2022-07-06T14:56:22;10.50;;;4.88;;
56122;SDS011;42426;46.104;19.656;2022-07-06T14:58:48;9.13;;;5.15;;
56122;SDS011;42426;46.104;19.656;2022-07-06T15:01:14;5.78;;;4.63;;
56122;SDS011;42426;46.104;19.656;2022-07-06T15:03:40;7.70;;;4.70;;
56122;SDS011;42426;46.104;19.656;2022-07-06T15:06:06;14.27;;;5.35;;
56122;SDS011;42426;46.104;19.656;2022-07-06T15:08:32;12.75;;;6.22;;
56122;SDS011;42426;46.104;19.656;2022-07-06T15:10:58;8.98;;;4.97;;
56122;SDS011;42426;46.104;19.656;2022-07-06T15:13:24;8.70;;;5.72;;
56122;SDS011;42426;46.104;19.656;2022-07-06T15:15:49;6.47;;;4.93;;
56122;SDS011;42426;46.104;19.656;2022-07-06T15:18:15;9.18;;;5.65;;
56122;SDS011;42426;46.104;19.656;2022-07-06T15:20:42;5.82;;;5.10;;
56122;SDS011;42426;46.104;19.656;2022-07-06T15:23:08;4.82;;;4.32;;
56122;SDS011;42426;46.104;19.656;2022-07-06T15:25:35;5.22;;;4.57;;
56122;SDS011;42426;46.104;19.656;2022-07-06T15:28:01;4.93;;;4.43;;
56122;SDS011;42426;46.104;19.656;2022-07-06T15:30:27;6.68;;;4.53;;
56122;SDS011;42426;46.104;19.656;2022-07-06T15:32:54;5.78;;;5.18;;
56122;SDS011;42426;46.104;19.656;2022-07-06T15:35:19;6.78;;;5.05;;
56122;SDS011;42426;46.104;19.656;2022-07-06T15:37:45;5.47;;;4.93;;
56122;SDS011;42426;46.104;19.656;2022-07-06T15:40:11;5.55;;;5.05;;
56122;SDS011;42426;46.104;19.656;2022-07-06T15:42:40;7.68;;;4.90;;
56122;SDS011;42426;46.104;19.656;2022-07-06T15:45:06;8.32;;;4.90;;
56122;SDS011;42426;46.104;19.656;2022-07-06T15:47:32;7.50;;;5.30;;
56122;SDS011;42426;46.104;19.656;2022-07-06T15:49:58;10.32;;;5.45;;
56122;SDS011;42426;46.104;19.656;2022-07-06T15:52:25;9.05;;;5.55;;
56122;SDS011;42426;46.104;19.656;2022-07-06T15:54:52;8.40;;;4.93;;
56122;SDS011;42426;46.104;19.656;2022-07-06T15:57:18;6.97;;;5.68;;
56122;SDS011;42426;46.104;19.656;2022-07-06T15:59:44;6.88;;;5.47;;
56122;SDS011;42426;46.104;19.656;2022-07-06T16:02:09;6.25;;;5.03;;
56122;SDS011;42426;46.104;19.656;2022-07-06T16:04:35;8.70;;;5.07;;
56122;SDS011;42426;46.104;19.656;2022-07-06T16:07:01;8.27;;;5.13;;
56122;SDS011;42426;46.104;19.656;2022-07-06T16:09:29;10.95;;;5.13;;
56122;SDS011;42426;46.104;19.656;2022-07-06T16:11:54;9.00;;;6.35;;